LLBG/TLV METAR and TAF weather

Enter ICAO airport designator
Station Type Date Time Source
LLBG METAR 2019/04/24 21:50 UTC NOAA

LLBG 242150Z 36004KT CAVOK 16/07 Q1021 NOSIG


Station Type Date Time Source
LLBG Decoded METAR 2019/04/24 21:50 UTC NOAA

Ben-Gurion International Airport, Israel (LLBG) 32-00N 034-54E 49M
Apr 24, 2019 - 05:50 PM EDT / 2019.04.24 2150 UTC
Wind: from the N (360 degrees) at 5 MPH (4 KT):0
Visibility: greater than 7 mile(s):0
Temperature: 60 F (16 C)
Dew Point: 44 F (7 C)
Relative Humidity: 55%
Pressure (altimeter): 30.15 in. Hg (1021 hPa)
ob: LLBG 242150Z 36004KT CAVOK 16/07 Q1021 NOSIG
cycle: 22

Station Type Date Time Source
LLBG TAF 2019/04/24 18:09 UTC NOAA

TAF TAF LLBG 241704Z 2418/2518 36012KT CAVOK
BECMG 2419/2422 VRB03KT
BECMG 2507/2509 33010KT TX30/2512Z TN14/2504Z

Example: see airport list